sensor_id;sensor_type;location;lat;lon;timestamp;temperature;humidity
44990;DHT22;30723;51.206;3.326;2022-11-24T00:01:55;9.10;99.90
44990;DHT22;30723;51.206;3.326;2022-11-24T00:04:21;9.20;99.90
44990;DHT22;30723;51.206;3.326;2022-11-24T00:06:47;9.20;99.90
44990;DHT22;30723;51.206;3.326;2022-11-24T00:09:12;9.30;99.90
44990;DHT22;30723;51.206;3.326;2022-11-24T00:11:38;9.30;99.90
44990;DHT22;30723;51.206;3.326;2022-11-24T00:14:05;9.40;99.90
44990;DHT22;30723;51.206;3.326;2022-11-24T00:16:35;9.40;99.90
44990;DHT22;30723;51.206;3.326;2022-11-24T00:19:04;9.40;99.90
44990;DHT22;30723;51.206;3.326;2022-11-24T00:21:31;9.50;99.90
44990;DHT22;30723;51.206;3.326;2022-11-24T00:23:58;9.50;99.90
44990;DHT22;30723;51.206;3.326;2022-11-24T00:26:26;9.50;99.90
44990;DHT22;30723;51.206;3.326;2022-11-24T00:28:56;9.50;99.90
44990;DHT22;30723;51.206;3.326;2022-11-24T00:31:42;9.50;99.90
44990;DHT22;30723;51.206;3.326;2022-11-24T00:34:13;9.50;99.90
44990;DHT22;30723;51.206;3.326;2022-11-24T00:36:39;9.40;99.90
44990;DHT22;30723;51.206;3.326;2022-11-24T00:39:10;9.40;99.90
44990;DHT22;30723;51.206;3.326;2022-11-24T00:41:37;9.30;99.90
44990;DHT22;30723;51.206;3.326;2022-11-24T00:44:04;9.30;99.90
44990;DHT22;30723;51.206;3.326;2022-11-24T00:46:30;9.30;99.90
44990;DHT22;30723;51.206;3.326;2022-11-24T00:48:56;9.30;99.90
44990;DHT22;30723;51.206;3.326;2022-11-24T00:51:24;9.30;99.90
44990;DHT22;30723;51.206;3.326;2022-11-24T00:53:58;9.30;99.90
44990;DHT22;30723;51.206;3.326;2022-11-24T00:56:25;9.30;99.90
44990;DHT22;30723;51.206;3.326;2022-11-24T00:58:51;9.40;99.90
44990;DHT22;30723;51.206;3.326;2022-11-24T01:01:24;9.30;99.90
44990;DHT22;30723;51.206;3.326;2022-11-24T01:03:50;9.40;99.90
44990;DHT22;30723;51.206;3.326;2022-11-24T01:06:20;9.30;99.90
44990;DHT22;30723;51.206;3.326;2022-11-24T01:08:46;9.40;99.90
44990;DHT22;30723;51.206;3.326;2022-11-24T01:11:19;9.30;99.90
44990;DHT22;30723;51.206;3.326;2022-11-24T01:13:48;9.30;99.90
44990;DHT22;30723;51.206;3.326;2022-11-24T01:16:24;9.30;99.90
44990;DHT22;30723;51.206;3.326;2022-11-24T01:18:51;9.30;99.90
44990;DHT22;30723;51.206;3.326;2022-11-24T01:21:17;9.30;99.90
44990;DHT22;30723;51.206;3.326;2022-11-24T01:23:43;9.40;99.90
44990;DHT22;30723;51.206;3.326;2022-11-24T01:26:11;9.30;99.90
44990;DHT22;30723;51.206;3.326;2022-11-24T01:28:37;9.40;99.90
44990;DHT22;30723;51.206;3.326;2022-11-24T01:31:05;9.30;99.90
44990;DHT22;30723;51.206;3.326;2022-11-24T01:33:33;9.20;99.90
44990;DHT22;30723;51.206;3.326;2022-11-24T01:35:59;9.20;99.90
44990;DHT22;30723;51.206;3.326;2022-11-24T01:38:25;9.10;99.90
44990;DHT22;30723;51.206;3.326;2022-11-24T01:41:06;9.10;99.90
44990;DHT22;30723;51.206;3.326;2022-11-24T01:43:33;9.10;99.90
44990;DHT22;30723;51.206;3.326;2022-11-24T01:51:35;9.10;99.90
44990;DHT22;30723;51.206;3.326;2022-11-24T01:54:13;9.10;99.90
44990;DHT22;30723;51.206;3.326;2022-11-24T01:56:41;9.10;99.90
44990;DHT22;30723;51.206;3.326;2022-11-24T01:59:11;9.00;99.90
44990;DHT22;30723;51.206;3.326;2022-11-24T02:01:37;8.90;99.90
44990;DHT22;30723;51.206;3.326;2022-11-24T02:04:07;8.90;99.90
44990;DHT22;30723;51.206;3.326;2022-11-24T02:06:34;8.80;99.90
44990;DHT22;30723;51.206;3.326;2022-11-24T02:09:12;8.80;99.90
44990;DHT22;30723;51.206;3.326;2022-11-24T02:11:40;8.80;99.90
44990;DHT22;30723;51.206;3.326;2022-11-24T02:14:10;8.70;99.90
44990;DHT22;30723;51.206;3.326;2022-11-24T02:16:38;8.70;99.90
44990;DHT22;30723;51.206;3.326;2022-11-24T02:21:43;8.70;99.90
44990;DHT22;30723;51.206;3.326;2022-11-24T02:26:47;8.70;99.90
44990;DHT22;30723;51.206;3.326;2022-11-24T02:29:14;8.70;99.90
44990;DHT22;30723;51.206;3.326;2022-11-24T02:31:53;8.70;99.90
44990;DHT22;30723;51.206;3.326;2022-11-24T02:34:23;8.80;99.90
44990;DHT22;30723;51.206;3.326;2022-11-24T02:36:48;8.80;99.90
44990;DHT22;30723;51.206;3.326;2022-11-24T02:39:15;8.70;99.90
44990;DHT22;30723;51.206;3.326;2022-11-24T02:41:43;8.80;99.90
44990;DHT22;30723;51.206;3.326;2022-11-24T02:44:12;8.70;99.90
44990;DHT22;30723;51.206;3.326;2022-11-24T02:46:40;8.70;99.90
44990;DHT22;30723;51.206;3.326;2022-11-24T02:49:05;8.70;99.90
44990;DHT22;30723;51.206;3.326;2022-11-24T02:51:31;8.50;99.90
44990;DHT22;30723;51.206;3.326;2022-11-24T02:53:59;8.50;99.90
44990;DHT22;30723;51.206;3.326;2022-11-24T02:56:25;8.50;99.90
44990;DHT22;30723;51.206;3.326;2022-11-24T02:58:51;8.50;99.90
44990;DHT22;30723;51.206;3.326;2022-11-24T03:01:17;8.40;99.90
44990;DHT22;30723;51.206;3.326;2022-11-24T03:03:43;8.40;99.90
44990;DHT22;30723;51.206;3.326;2022-11-24T03:06:09;8.40;99.90
44990;DHT22;30723;51.206;3.326;2022-11-24T03:08:35;8.30;99.90
44990;DHT22;30723;51.206;3.326;2022-11-24T03:11:01;8.30;99.90
44990;DHT22;30723;51.206;3.326;2022-11-24T03:13:27;8.30;99.90
44990;DHT22;30723;51.206;3.326;2022-11-24T03:15:53;8.30;99.90
44990;DHT22;30723;51.206;3.326;2022-11-24T03:18:19;8.30;99.90
44990;DHT22;30723;51.206;3.326;2022-11-24T03:20:45;8.30;99.90
44990;DHT22;30723;51.206;3.326;2022-11-24T03:23:11;8.30;99.90
44990;DHT22;30723;51.206;3.326;2022-11-24T03:25:36;8.30;99.90
44990;DHT22;30723;51.206;3.326;2022-11-24T03:28:02;8.30;99.90
44990;DHT22;30723;51.206;3.326;2022-11-24T03:30:28;8.30;99.90
44990;DHT22;30723;51.206;3.326;2022-11-24T03:32:54;8.30;99.90
44990;DHT22;30723;51.206;3.326;2022-11-24T03:35:20;8.20;99.90
44990;DHT22;30723;51.206;3.326;2022-11-24T03:37:46;8.20;99.90
44990;DHT22;30723;51.206;3.326;2022-11-24T03:40:13;8.20;99.90
44990;DHT22;30723;51.206;3.326;2022-11-24T03:42:39;8.20;99.90
44990;DHT22;30723;51.206;3.326;2022-11-24T03:45:05;8.30;99.90
44990;DHT22;30723;51.206;3.326;2022-11-24T03:47:31;8.20;99.90
44990;DHT22;30723;51.206;3.326;2022-11-24T03:49:57;8.30;99.90
44990;DHT22;30723;51.206;3.326;2022-11-24T03:52:23;8.30;99.90
44990;DHT22;30723;51.206;3.326;2022-11-24T03:54:52;8.30;99.90
44990;DHT22;30723;51.206;3.326;2022-11-24T03:57:17;8.30;99.90
44990;DHT22;30723;51.206;3.326;2022-11-24T03:59:43;8.30;99.90
44990;DHT22;30723;51.206;3.326;2022-11-24T04:02:09;8.20;99.90
44990;DHT22;30723;51.206;3.326;2022-11-24T04:04:34;8.20;99.90
44990;DHT22;30723;51.206;3.326;2022-11-24T04:07:00;8.20;99.90
44990;DHT22;30723;51.206;3.326;2022-11-24T04:09:26;8.20;99.90
44990;DHT22;30723;51.206;3.326;2022-11-24T04:11:52;8.20;99.90
44990;DHT22;30723;51.206;3.326;2022-11-24T04:14:36;8.30;99.90
44990;DHT22;30723;51.206;3.326;2022-11-24T04:17:02;8.30;99.90
44990;DHT22;30723;51.206;3.326;2022-11-24T04:19:29;8.30;99.90
44990;DHT22;30723;51.206;3.326;2022-11-24T04:21:54;8.20;99.90
44990;DHT22;30723;51.206;3.326;2022-11-24T04:24:20;8.20;99.90
44990;DHT22;30723;51.206;3.326;2022-11-24T04:26:46;8.20;99.90
44990;DHT22;30723;51.206;3.326;2022-11-24T04:29:12;8.20;99.90
44990;DHT22;30723;51.206;3.326;2022-11-24T04:31:38;8.20;99.90
44990;DHT22;30723;51.206;3.326;2022-11-24T04:34:03;8.20;99.90
44990;DHT22;30723;51.206;3.326;2022-11-24T04:36:29;8.20;99.90
44990;DHT22;30723;51.206;3.326;2022-11-24T04:38:55;8.20;99.90
44990;DHT22;30723;51.206;3.326;2022-11-24T04:41:21;8.20;99.90
44990;DHT22;30723;51.206;3.326;2022-11-24T04:43:49;8.20;99.90
44990;DHT22;30723;51.206;3.326;2022-11-24T04:46:15;8.30;99.90
44990;DHT22;30723;51.206;3.326;2022-11-24T04:48:41;8.20;99.90
44990;DHT22;30723;51.206;3.326;2022-11-24T04:51:07;8.20;99.90
44990;DHT22;30723;51.206;3.326;2022-11-24T04:53:33;8.30;99.90
44990;DHT22;30723;51.206;3.326;2022-11-24T04:56:02;8.20;99.90
44990;DHT22;30723;51.206;3.326;2022-11-24T04:58:28;8.20;99.90
44990;DHT22;30723;51.206;3.326;2022-11-24T05:00:54;8.20;99.90
44990;DHT22;30723;51.206;3.326;2022-11-24T05:03:20;8.20;99.90
44990;DHT22;30723;51.206;3.326;2022-11-24T05:05:46;8.10;99.90
44990;DHT22;30723;51.206;3.326;2022-11-24T05:08:11;8.10;99.90
44990;DHT22;30723;51.206;3.326;2022-11-24T05:10:37;8.10;99.90
44990;DHT22;30723;51.206;3.326;2022-11-24T05:13:07;8.10;99.90
44990;DHT22;30723;51.206;3.326;2022-11-24T05:15:33;8.20;99.90
44990;DHT22;30723;51.206;3.326;2022-11-24T05:18:02;8.20;99.90
44990;DHT22;30723;51.206;3.326;2022-11-24T05:20:27;8.20;99.90
44990;DHT22;30723;51.206;3.326;2022-11-24T05:22:53;8.10;99.90
44990;DHT22;30723;51.206;3.326;2022-11-24T05:25:19;8.10;99.90
44990;DHT22;30723;51.206;3.326;2022-11-24T05:27:45;8.20;99.90
44990;DHT22;30723;51.206;3.326;2022-11-24T05:30:11;8.20;99.90
44990;DHT22;30723;51.206;3.326;2022-11-24T05:32:37;8.20;99.90
44990;DHT22;30723;51.206;3.326;2022-11-24T05:35:03;8.20;99.90
44990;DHT22;30723;51.206;3.326;2022-11-24T05:37:29;8.10;99.90
44990;DHT22;30723;51.206;3.326;2022-11-24T05:39:55;8.10;99.90
44990;DHT22;30723;51.206;3.326;2022-11-24T05:42:21;8.10;99.90
44990;DHT22;30723;51.206;3.326;2022-11-24T05:45:10;8.00;99.90
44990;DHT22;30723;51.206;3.326;2022-11-24T05:47:36;8.00;99.90
44990;DHT22;30723;51.206;3.326;2022-11-24T05:50:02;8.00;99.90
44990;DHT22;30723;51.206;3.326;2022-11-24T05:52:27;8.00;99.90
44990;DHT22;30723;51.206;3.326;2022-11-24T05:54:53;7.90;99.90
44990;DHT22;30723;51.206;3.326;2022-11-24T05:57:19;7.90;99.90
44990;DHT22;30723;51.206;3.326;2022-11-24T05:59:44;7.90;99.90
44990;DHT22;30723;51.206;3.326;2022-11-24T06:02:10;7.90;99.90
44990;DHT22;30723;51.206;3.326;2022-11-24T06:04:36;7.90;99.90
44990;DHT22;30723;51.206;3.326;2022-11-24T06:07:05;7.90;99.90
44990;DHT22;30723;51.206;3.326;2022-11-24T06:09:31;7.90;99.90
44990;DHT22;30723;51.206;3.326;2022-11-24T06:11:57;7.90;99.90
44990;DHT22;30723;51.206;3.326;2022-11-24T06:14:22;7.90;99.90
44990;DHT22;30723;51.206;3.326;2022-11-24T06:16:48;7.90;99.90
44990;DHT22;30723;51.206;3.326;2022-11-24T06:19:14;7.80;99.90
44990;DHT22;30723;51.206;3.326;2022-11-24T06:21:40;7.80;99.90
44990;DHT22;30723;51.206;3.326;2022-11-24T06:24:06;7.80;99.90
44990;DHT22;30723;51.206;3.326;2022-11-24T06:26:32;7.80;99.90
44990;DHT22;30723;51.206;3.326;2022-11-24T06:29:00;7.80;99.90
44990;DHT22;30723;51.206;3.326;2022-11-24T06:31:26;7.80;99.90
44990;DHT22;30723;51.206;3.326;2022-11-24T06:33:51;7.70;99.90
44990;DHT22;30723;51.206;3.326;2022-11-24T06:36:20;7.80;99.90
44990;DHT22;30723;51.206;3.326;2022-11-24T06:38:45;7.70;99.90
44990;DHT22;30723;51.206;3.326;2022-11-24T06:41:12;7.70;99.90
44990;DHT22;30723;51.206;3.326;2022-11-24T06:43:39;7.70;99.90
44990;DHT22;30723;51.206;3.326;2022-11-24T06:46:05;7.70;99.90
44990;DHT22;30723;51.206;3.326;2022-11-24T06:48:30;7.70;99.90
44990;DHT22;30723;51.206;3.326;2022-11-24T06:51:01;7.70;99.90
44990;DHT22;30723;51.206;3.326;2022-11-24T06:53:31;7.60;99.90
44990;DHT22;30723;51.206;3.326;2022-11-24T06:56:01;7.60;99.90
44990;DHT22;30723;51.206;3.326;2022-11-24T06:58:27;7.60;99.90
44990;DHT22;30723;51.206;3.326;2022-11-24T07:00:52;7.60;99.90
44990;DHT22;30723;51.206;3.326;2022-11-24T07:03:18;7.60;99.90
44990;DHT22;30723;51.206;3.326;2022-11-24T07:05:44;7.50;99.90
44990;DHT22;30723;51.206;3.326;2022-11-24T07:08:10;7.50;99.90
44990;DHT22;30723;51.206;3.326;2022-11-24T07:10:37;7.50;99.90
44990;DHT22;30723;51.206;3.326;2022-11-24T07:13:05;7.50;99.90
44990;DHT22;30723;51.206;3.326;2022-11-24T07:15:31;7.50;99.90
44990;DHT22;30723;51.206;3.326;2022-11-24T07:17:56;7.50;99.90
44990;DHT22;30723;51.206;3.326;2022-11-24T07:20:22;7.50;99.90
44990;DHT22;30723;51.206;3.326;2022-11-24T07:22:48;7.50;99.90
44990;DHT22;30723;51.206;3.326;2022-11-24T07:25:14;7.50;99.90
44990;DHT22;30723;51.206;3.326;2022-11-24T07:27:41;7.50;99.90
44990;DHT22;30723;51.206;3.326;2022-11-24T07:30:07;7.50;99.90
44990;DHT22;30723;51.206;3.326;2022-11-24T07:32:33;7.50;99.90
44990;DHT22;30723;51.206;3.326;2022-11-24T07:34:59;7.50;99.90
44990;DHT22;30723;51.206;3.326;2022-11-24T07:37:25;7.50;99.90
44990;DHT22;30723;51.206;3.326;2022-11-24T07:39:51;7.50;99.90
44990;DHT22;30723;51.206;3.326;2022-11-24T07:42:17;7.50;99.90
44990;DHT22;30723;51.206;3.326;2022-11-24T07:44:42;7.50;99.90
44990;DHT22;30723;51.206;3.326;2022-11-24T07:47:08;7.50;99.90
44990;DHT22;30723;51.206;3.326;2022-11-24T07:49:34;7.50;99.90
44990;DHT22;30723;51.206;3.326;2022-11-24T07:52:00;7.50;99.90
44990;DHT22;30723;51.206;3.326;2022-11-24T07:54:25;7.50;99.90
44990;DHT22;30723;51.206;3.326;2022-11-24T07:56:51;7.50;99.90
44990;DHT22;30723;51.206;3.326;2022-11-24T07:59:17;7.50;99.90
44990;DHT22;30723;51.206;3.326;2022-11-24T08:01:43;7.60;99.90
44990;DHT22;30723;51.206;3.326;2022-11-24T08:04:08;7.60;99.90
44990;DHT22;30723;51.206;3.326;2022-11-24T08:06:34;7.60;99.90
44990;DHT22;30723;51.206;3.326;2022-11-24T08:09:00;7.50;99.90
44990;DHT22;30723;51.206;3.326;2022-11-24T08:11:26;7.60;99.90
44990;DHT22;30723;51.206;3.326;2022-11-24T08:13:52;7.60;99.90
44990;DHT22;30723;51.206;3.326;2022-11-24T08:16:19;7.70;99.90
44990;DHT22;30723;51.206;3.326;2022-11-24T08:18:50;7.70;99.90
44990;DHT22;30723;51.206;3.326;2022-11-24T08:21:16;7.70;99.90
44990;DHT22;30723;51.206;3.326;2022-11-24T08:23:42;7.70;99.90
44990;DHT22;30723;51.206;3.326;2022-11-24T08:26:11;7.80;99.90
44990;DHT22;30723;51.206;3.326;2022-11-24T08:28:38;7.80;99.90
44990;DHT22;30723;51.206;3.326;2022-11-24T08:31:06;7.80;99.90
44990;DHT22;30723;51.206;3.326;2022-11-24T08:33:33;7.80;99.90
44990;DHT22;30723;51.206;3.326;2022-11-24T08:36:18;7.90;99.90
44990;DHT22;30723;51.206;3.326;2022-11-24T08:38:44;8.00;99.90
44990;DHT22;30723;51.206;3.326;2022-11-24T08:41:13;8.00;99.90
44990;DHT22;30723;51.206;3.326;2022-11-24T08:43:39;8.10;99.90
44990;DHT22;30723;51.206;3.326;2022-11-24T08:46:13;8.20;99.90
44990;DHT22;30723;51.206;3.326;2022-11-24T08:48:41;8.10;99.90
44990;DHT22;30723;51.206;3.326;2022-11-24T08:51:11;8.20;99.90
44990;DHT22;30723;51.206;3.326;2022-11-24T08:53:38;8.20;99.90
44990;DHT22;30723;51.206;3.326;2022-11-24T08:56:04;8.30;99.90
44990;DHT22;30723;51.206;3.326;2022-11-24T08:58:34;8.40;99.90
44990;DHT22;30723;51.206;3.326;2022-11-24T09:01:07;8.40;99.90
44990;DHT22;30723;51.206;3.326;2022-11-24T09:03:34;8.50;99.90
44990;DHT22;30723;51.206;3.326;2022-11-24T09:06:00;8.60;99.90
44990;DHT22;30723;51.206;3.326;2022-11-24T09:08:29;8.70;99.90
44990;DHT22;30723;51.206;3.326;2022-11-24T09:11:00;8.70;99.90
44990;DHT22;30723;51.206;3.326;2022-11-24T09:13:26;8.80;99.90
44990;DHT22;30723;51.206;3.326;2022-11-24T09:15:52;8.80;99.90
44990;DHT22;30723;51.206;3.326;2022-11-24T09:18:17;8.90;99.90
44990;DHT22;30723;51.206;3.326;2022-11-24T09:20:43;8.90;99.90
44990;DHT22;30723;51.206;3.326;2022-11-24T09:23:09;9.00;99.90
44990;DHT22;30723;51.206;3.326;2022-11-24T09:25:35;9.10;99.90
44990;DHT22;30723;51.206;3.326;2022-11-24T09:28:00;9.10;99.90
44990;DHT22;30723;51.206;3.326;2022-11-24T09:30:27;9.20;99.90
44990;DHT22;30723;51.206;3.326;2022-11-24T09:32:55;9.30;99.90
44990;DHT22;30723;51.206;3.326;2022-11-24T09:35:21;9.30;99.90
44990;DHT22;30723;51.206;3.326;2022-11-24T09:37:46;9.40;99.90
44990;DHT22;30723;51.206;3.326;2022-11-24T09:40:13;9.40;99.90
44990;DHT22;30723;51.206;3.326;2022-11-24T09:42:54;9.40;99.90
44990;DHT22;30723;51.206;3.326;2022-11-24T09:45:46;9.40;99.90
44990;DHT22;30723;51.206;3.326;2022-11-24T09:48:22;9.50;99.90
44990;DHT22;30723;51.206;3.326;2022-11-24T09:50:51;9.50;99.90
44990;DHT22;30723;51.206;3.326;2022-11-24T09:53:20;9.50;99.90
44990;DHT22;30723;51.206;3.326;2022-11-24T09:55:51;9.60;99.90
44990;DHT22;30723;51.206;3.326;2022-11-24T10:01:14;9.70;99.90
44990;DHT22;30723;51.206;3.326;2022-11-24T10:03:46;9.80;99.90
44990;DHT22;30723;51.206;3.326;2022-11-24T10:06:28;9.90;99.90
44990;DHT22;30723;51.206;3.326;2022-11-24T10:14:55;11.30;99.90
44990;DHT22;30723;51.206;3.326;2022-11-24T10:17:50;12.30;99.90
44990;DHT22;30723;51.206;3.326;2022-11-24T10:25:53;14.30;99.90
44990;DHT22;30723;51.206;3.326;2022-11-24T10:28:21;14.90;99.90
44990;DHT22;30723;51.206;3.326;2022-11-24T10:31:08;14.70;99.90
44990;DHT22;30723;51.206;3.326;2022-11-24T10:33:35;14.90;99.90
44990;DHT22;30723;51.206;3.326;2022-11-24T10:36:07;14.80;99.90
44990;DHT22;30723;51.206;3.326;2022-11-24T10:38:46;14.90;99.90
44990;DHT22;30723;51.206;3.326;2022-11-24T10:41:23;15.40;99.90
44990;DHT22;30723;51.206;3.326;2022-11-24T10:43:51;15.70;99.90
44990;DHT22;30723;51.206;3.326;2022-11-24T10:46:23;15.80;99.90
44990;DHT22;30723;51.206;3.326;2022-11-24T10:48:57;15.70;99.90
44990;DHT22;30723;51.206;3.326;2022-11-24T10:54:21;16.10;99.90
44990;DHT22;30723;51.206;3.326;2022-11-24T10:56:50;16.80;99.90
44990;DHT22;30723;51.206;3.326;2022-11-24T10:59:29;17.10;99.90
44990;DHT22;30723;51.206;3.326;2022-11-24T11:01:57;16.60;99.90
44990;DHT22;30723;51.206;3.326;2022-11-24T11:04:27;16.70;99.90
44990;DHT22;30723;51.206;3.326;2022-11-24T11:07:19;16.70;99.90
44990;DHT22;30723;51.206;3.326;2022-11-24T11:09:46;16.50;99.90
44990;DHT22;30723;51.206;3.326;2022-11-24T11:12:21;16.80;99.90
44990;DHT22;30723;51.206;3.326;2022-11-24T11:14:48;16.70;99.90
44990;DHT22;30723;51.206;3.326;2022-11-24T11:17:38;16.60;99.90
44990;DHT22;30723;51.206;3.326;2022-11-24T11:20:18;16.30;99.90
44990;DHT22;30723;51.206;3.326;2022-11-24T11:22:47;16.30;99.90
44990;DHT22;30723;51.206;3.326;2022-11-24T11:25:20;16.60;99.90
44990;DHT22;30723;51.206;3.326;2022-11-24T11:27:46;16.30;99.90
44990;DHT22;30723;51.206;3.326;2022-11-24T11:30:23;15.70;99.90
44990;DHT22;30723;51.206;3.326;2022-11-24T11:32:53;15.40;99.90
44990;DHT22;30723;51.206;3.326;2022-11-24T11:35:20;15.20;99.90
44990;DHT22;30723;51.206;3.326;2022-11-24T11:37:47;15.20;99.90
44990;DHT22;30723;51.206;3.326;2022-11-24T11:40:23;14.90;99.90
44990;DHT22;30723;51.206;3.326;2022-11-24T11:42:56;14.80;99.90
44990;DHT22;30723;51.206;3.326;2022-11-24T11:45:36;14.70;99.90
44990;DHT22;30723;51.206;3.326;2022-11-24T11:56:47;14.20;99.90
44990;DHT22;30723;51.206;3.326;2022-11-24T11:59:36;14.00;99.90
44990;DHT22;30723;51.206;3.326;2022-11-24T12:04:43;13.70;99.90
44990;DHT22;30723;51.206;3.326;2022-11-24T12:10:39;13.40;99.90
44990;DHT22;30723;51.206;3.326;2022-11-24T12:27:04;16.70;99.90
44990;DHT22;30723;51.206;3.326;2022-11-24T12:41:20;17.30;99.90
44990;DHT22;30723;51.206;3.326;2022-11-24T12:43:55;17.50;99.90
44990;DHT22;30723;51.206;3.326;2022-11-24T12:50:28;17.80;99.90
44990;DHT22;30723;51.206;3.326;2022-11-24T12:52:32;17.60;99.90
44990;DHT22;30723;51.206;3.326;2022-11-24T12:55:00;16.90;99.90
44990;DHT22;30723;51.206;3.326;2022-11-24T12:57:38;16.30;99.90
44990;DHT22;30723;51.206;3.326;2022-11-24T13:00:31;15.80;99.90
44990;DHT22;30723;51.206;3.326;2022-11-24T13:03:30;15.30;99.90
44990;DHT22;30723;51.206;3.326;2022-11-24T13:09:17;14.40;99.90
44990;DHT22;30723;51.206;3.326;2022-11-24T13:11:48;14.20;99.90
44990;DHT22;30723;51.206;3.326;2022-11-24T13:14:36;14.10;99.90
44990;DHT22;30723;51.206;3.326;2022-11-24T13:17:31;13.90;99.90
44990;DHT22;30723;51.206;3.326;2022-11-24T13:22:59;13.70;99.90
44990;DHT22;30723;51.206;3.326;2022-11-24T13:25:28;13.70;99.90
44990;DHT22;30723;51.206;3.326;2022-11-24T13:27:56;13.60;99.90
44990;DHT22;30723;51.206;3.326;2022-11-24T13:35:37;13.30;99.90
44990;DHT22;30723;51.206;3.326;2022-11-24T13:38:38;13.10;99.90
44990;DHT22;30723;51.206;3.326;2022-11-24T13:41:07;13.10;99.90
44990;DHT22;30723;51.206;3.326;2022-11-24T13:43:33;13.00;99.90
44990;DHT22;30723;51.206;3.326;2022-11-24T13:46:00;12.90;99.90
44990;DHT22;30723;51.206;3.326;2022-11-24T13:53:41;12.90;99.90
44990;DHT22;30723;51.206;3.326;2022-11-24T13:58:38;13.00;99.90
44990;DHT22;30723;51.206;3.326;2022-11-24T14:01:18;12.90;99.90
44990;DHT22;30723;51.206;3.326;2022-11-24T14:03:51;12.80;99.90
44990;DHT22;30723;51.206;3.326;2022-11-24T14:06:41;12.70;99.90
44990;DHT22;30723;51.206;3.326;2022-11-24T14:09:47;12.60;99.90
44990;DHT22;30723;51.206;3.326;2022-11-24T14:12:19;12.60;99.90
44990;DHT22;30723;51.206;3.326;2022-11-24T14:14:47;12.50;99.90
44990;DHT22;30723;51.206;3.326;2022-11-24T14:17:24;12.40;99.90
44990;DHT22;30723;51.206;3.326;2022-11-24T14:19:53;12.30;99.90
44990;DHT22;30723;51.206;3.326;2022-11-24T14:22:46;12.20;99.90
44990;DHT22;30723;51.206;3.326;2022-11-24T14:25:29;12.10;99.90
44990;DHT22;30723;51.206;3.326;2022-11-24T14:27:56;11.90;99.90
44990;DHT22;30723;51.206;3.326;2022-11-24T14:30:24;11.90;99.90
44990;DHT22;30723;51.206;3.326;2022-11-24T14:33:00;11.90;99.90
44990;DHT22;30723;51.206;3.326;2022-11-24T14:35:29;11.90;99.90
44990;DHT22;30723;51.206;3.326;2022-11-24T14:37:55;11.80;99.90
44990;DHT22;30723;51.206;3.326;2022-11-24T14:43:29;11.70;99.90
44990;DHT22;30723;51.206;3.326;2022-11-24T14:46:09;11.70;99.90
44990;DHT22;30723;51.206;3.326;2022-11-24T14:48:50;11.70;99.90
44990;DHT22;30723;51.206;3.326;2022-11-24T14:51:23;11.70;99.90
44990;DHT22;30723;51.206;3.326;2022-11-24T14:53:51;11.70;99.90
44990;DHT22;30723;51.206;3.326;2022-11-24T14:56:25;11.70;99.90
44990;DHT22;30723;51.206;3.326;2022-11-24T14:58:52;11.60;99.90
44990;DHT22;30723;51.206;3.326;2022-11-24T15:01:28;11.60;99.90
44990;DHT22;30723;51.206;3.326;2022-11-24T15:04:14;11.60;99.90
44990;DHT22;30723;51.206;3.326;2022-11-24T15:06:41;11.60;99.90
44990;DHT22;30723;51.206;3.326;2022-11-24T15:12:09;11.60;99.90
44990;DHT22;30723;51.206;3.326;2022-11-24T15:14:52;11.60;99.90
44990;DHT22;30723;51.206;3.326;2022-11-24T15:17:25;11.60;99.90
44990;DHT22;30723;51.206;3.326;2022-11-24T15:20:07;11.70;99.90
44990;DHT22;30723;51.206;3.326;2022-11-24T15:22:40;11.70;99.90
44990;DHT22;30723;51.206;3.326;2022-11-24T15:25:26;11.60;99.90
44990;DHT22;30723;51.206;3.326;2022-11-24T15:27:53;11.60;99.90
44990;DHT22;30723;51.206;3.326;2022-11-24T15:30:19;11.60;99.90
44990;DHT22;30723;51.206;3.326;2022-11-24T15:32:49;11.60;99.90
44990;DHT22;30723;51.206;3.326;2022-11-24T15:35:15;11.60;99.90
44990;DHT22;30723;51.206;3.326;2022-11-24T15:37:41;11.50;99.90
44990;DHT22;30723;51.206;3.326;2022-11-24T15:40:09;11.50;99.90
44990;DHT22;30723;51.206;3.326;2022-11-24T15:42:35;11.40;99.90
44990;DHT22;30723;51.206;3.326;2022-11-24T15:45:00;11.40;99.90
44990;DHT22;30723;51.206;3.326;2022-11-24T15:47:26;11.30;99.90
44990;DHT22;30723;51.206;3.326;2022-11-24T15:49:52;11.20;99.90
44990;DHT22;30723;51.206;3.326;2022-11-24T15:52:18;11.20;99.90
44990;DHT22;30723;51.206;3.326;2022-11-24T15:54:47;11.20;99.90
44990;DHT22;30723;51.206;3.326;2022-11-24T15:57:14;11.10;99.90
44990;DHT22;30723;51.206;3.326;2022-11-24T15:59:40;11.10;99.90
44990;DHT22;30723;51.206;3.326;2022-11-24T16:02:07;11.10;99.90
44990;DHT22;30723;51.206;3.326;2022-11-24T16:04:33;11.10;99.90
44990;DHT22;30723;51.206;3.326;2022-11-24T16:06:59;11.10;99.90
44990;DHT22;30723;51.206;3.326;2022-11-24T16:09:25;11.10;99.90
44990;DHT22;30723;51.206;3.326;2022-11-24T16:11:51;11.00;99.90
44990;DHT22;30723;51.206;3.326;2022-11-24T16:14:17;11.00;99.90
44990;DHT22;30723;51.206;3.326;2022-11-24T16:16:42;11.00;99.90
44990;DHT22;30723;51.206;3.326;2022-11-24T16:19:09;11.00;99.90
44990;DHT22;30723;51.206;3.326;2022-11-24T16:21:35;11.00;99.90
44990;DHT22;30723;51.206;3.326;2022-11-24T16:24:01;10.90;99.90
44990;DHT22;30723;51.206;3.326;2022-11-24T16:26:28;10.90;99.90
44990;DHT22;30723;51.206;3.326;2022-11-24T16:28:53;10.90;99.90
44990;DHT22;30723;51.206;3.326;2022-11-24T16:31:19;10.90;99.90
44990;DHT22;30723;51.206;3.326;2022-11-24T16:33:45;10.90;99.90
44990;DHT22;30723;51.206;3.326;2022-11-24T16:36:11;10.90;99.90
44990;DHT22;30723;51.206;3.326;2022-11-24T16:38:37;10.80;99.90
44990;DHT22;30723;51.206;3.326;2022-11-24T16:41:03;10.80;99.90
44990;DHT22;30723;51.206;3.326;2022-11-24T16:43:29;10.80;99.90
44990;DHT22;30723;51.206;3.326;2022-11-24T16:48:50;10.80;99.90
44990;DHT22;30723;51.206;3.326;2022-11-24T16:51:18;10.80;99.90
44990;DHT22;30723;51.206;3.326;2022-11-24T16:53:44;10.80;99.90
44990;DHT22;30723;51.206;3.326;2022-11-24T16:56:10;10.70;99.90
44990;DHT22;30723;51.206;3.326;2022-11-24T16:58:38;10.70;99.90
44990;DHT22;30723;51.206;3.326;2022-11-24T17:01:09;10.70;99.90
44990;DHT22;30723;51.206;3.326;2022-11-24T17:03:35;10.70;99.90
44990;DHT22;30723;51.206;3.326;2022-11-24T17:06:03;10.60;99.90
44990;DHT22;30723;51.206;3.326;2022-11-24T17:08:30;10.60;99.90
44990;DHT22;30723;51.206;3.326;2022-11-24T17:11:01;10.60;99.90
44990;DHT22;30723;51.206;3.326;2022-11-24T17:13:31;10.60;99.90
44990;DHT22;30723;51.206;3.326;2022-11-24T17:15:56;10.60;99.90
44990;DHT22;30723;51.206;3.326;2022-11-24T17:18:22;10.60;99.90
44990;DHT22;30723;51.206;3.326;2022-11-24T17:20:48;10.60;99.90
44990;DHT22;30723;51.206;3.326;2022-11-24T17:23:14;10.60;99.90
44990;DHT22;30723;51.206;3.326;2022-11-24T17:25:40;10.50;99.90
44990;DHT22;30723;51.206;3.326;2022-11-24T17:28:06;10.50;99.90
44990;DHT22;30723;51.206;3.326;2022-11-24T17:30:31;10.60;99.90
44990;DHT22;30723;51.206;3.326;2022-11-24T17:33:00;10.60;99.90